createdAt,value
2018-12-29T00:00:49.422Z,11.67
2018-12-29T00:03:18.274Z,10.40
2018-12-29T00:05:47.050Z,11.00
2018-12-29T00:08:16.058Z,11.00
2018-12-29T00:10:44.863Z,12.57
2018-12-29T00:13:14.685Z,11.57
2018-12-29T00:15:43.763Z,10.87
2018-12-29T00:18:12.682Z,10.50
2018-12-29T00:20:41.531Z,11.30
2018-12-29T00:23:10.319Z,10.67
2018-12-29T00:25:39.153Z,10.13
2018-12-29T00:28:08.036Z,11.10
2018-12-29T00:30:37.005Z,12.17
2018-12-29T00:33:05.912Z,11.30
2018-12-29T00:35:34.709Z,11.90
2018-12-29T00:38:03.536Z,12.60
2018-12-29T00:40:32.517Z,10.97
2018-12-29T00:43:01.390Z,10.23
2018-12-29T00:45:30.361Z,10.73
2018-12-29T00:47:59.133Z,12.27
2018-12-29T00:50:27.977Z,11.00
2018-12-29T00:52:56.787Z,12.23
2018-12-29T00:55:25.751Z,10.33
2018-12-29T00:57:54.527Z,11.53
2018-12-29T01:00:23.375Z,12.37
2018-12-29T01:02:52.367Z,10.90
2018-12-29T01:05:21.273Z,12.80
2018-12-29T01:07:50.135Z,11.47
2018-12-29T01:10:19.069Z,11.93
2018-12-29T01:12:51.202Z,11.97
2018-12-29T01:15:20.171Z,12.50
2018-12-29T01:17:48.966Z,12.33
2018-12-29T01:20:19.460Z,13.03
2018-12-29T01:22:48.448Z,11.80
2018-12-29T01:25:17.312Z,11.20
2018-12-29T01:27:46.206Z,12.47
2018-12-29T01:30:15.381Z,12.10
2018-12-29T01:32:44.565Z,11.20
2018-12-29T01:35:13.580Z,10.77
2018-12-29T01:37:42.476Z,12.00
2018-12-29T01:40:11.513Z,12.17
2018-12-29T01:42:40.476Z,11.40
2018-12-29T01:45:09.556Z,13.47
2018-12-29T01:47:38.417Z,13.00
2018-12-29T01:50:07.286Z,13.10
2018-12-29T01:52:36.236Z,13.70
2018-12-29T01:55:05.112Z,13.17
2018-12-29T01:57:36.385Z,13.40
2018-12-29T02:00:05.772Z,13.53
2018-12-29T02:02:34.896Z,14.07
2018-12-29T02:05:04.708Z,14.10
2018-12-29T02:07:33.747Z,13.50
2018-12-29T02:10:02.849Z,12.73
2018-12-29T02:12:31.761Z,13.90
2018-12-29T02:15:00.959Z,14.07
2018-12-29T02:17:30.174Z,13.33
2018-12-29T02:20:01.125Z,12.93
2018-12-29T02:22:30.193Z,11.93
2018-12-29T02:24:59.093Z,13.50
2018-12-29T02:27:27.901Z,13.90
2018-12-29T02:29:59.783Z,14.50
2018-12-29T02:32:30.909Z,13.50
2018-12-29T02:35:00.013Z,14.10
2018-12-29T02:37:28.949Z,14.30
2018-12-29T02:39:57.788Z,15.27
2018-12-29T02:42:26.731Z,13.60
2018-12-29T02:44:55.948Z,14.27
2018-12-29T02:47:25.257Z,14.40
2018-12-29T02:49:54.180Z,13.90
2018-12-29T02:52:25.294Z,15.23
2018-12-29T02:54:54.105Z,14.20
2018-12-29T02:57:23.155Z,15.67
2018-12-29T02:59:51.945Z,15.30
2018-12-29T03:02:21.082Z,13.47
2018-12-29T03:04:51.054Z,13.53
2018-12-29T03:07:19.923Z,13.77
2018-12-29T03:09:49.132Z,12.10
2018-12-29T03:12:18.108Z,14.27
2018-12-29T03:14:47.385Z,13.67
2018-12-29T03:17:16.460Z,14.07
2018-12-29T03:19:45.322Z,13.80
2018-12-29T03:22:14.229Z,13.37
2018-12-29T03:24:43.525Z,14.33
2018-12-29T03:27:12.823Z,13.30
2018-12-29T03:29:41.823Z,12.60
2018-12-29T03:32:10.775Z,11.80
2018-12-29T03:34:39.949Z,13.97
2018-12-29T03:37:08.804Z,13.03
2018-12-29T03:39:37.819Z,13.10
2018-12-29T03:42:06.720Z,13.80
2018-12-29T03:44:35.711Z,13.60
2018-12-29T03:47:04.929Z,14.90
2018-12-29T03:49:33.802Z,15.80
2018-12-29T03:52:02.712Z,14.73
2018-12-29T03:54:32.301Z,14.97
2018-12-29T03:57:02.623Z,12.93
2018-12-29T03:59:31.720Z,13.17
2018-12-29T04:02:00.595Z,13.77
2018-12-29T04:04:29.544Z,14.60
2018-12-29T04:06:58.507Z,16.10
2018-12-29T04:09:34.724Z,14.83
2018-12-29T04:12:18.208Z,14.03
2018-12-29T04:14:47.266Z,13.20
2018-12-29T04:17:16.147Z,12.30
2018-12-29T04:19:45.004Z,14.80
2018-12-29T04:22:13.802Z,12.83
2018-12-29T04:24:42.642Z,14.13
2018-12-29T04:27:11.567Z,13.10
2018-12-29T04:29:40.591Z,13.90
2018-12-29T04:32:09.341Z,13.50
2018-12-29T04:34:38.831Z,13.73
2018-12-29T04:37:09.114Z,13.60
2018-12-29T04:39:38.053Z,14.37
2018-12-29T04:42:07.105Z,14.67
2018-12-29T04:44:36.074Z,14.50
2018-12-29T04:47:05.108Z,15.07
2018-12-29T04:49:33.979Z,13.93
2018-12-29T04:52:04.593Z,16.40
2018-12-29T04:54:33.525Z,16.27
2018-12-29T04:57:02.430Z,14.70
2018-12-29T04:59:31.414Z,14.40
2018-12-29T05:02:00.142Z,16.10
2018-12-29T05:04:29.233Z,16.90
2018-12-29T05:06:58.469Z,14.77
2018-12-29T05:09:27.345Z,14.87
2018-12-29T05:11:56.277Z,14.67
2018-12-29T05:14:29.241Z,14.40
2018-12-29T05:16:58.182Z,15.20
2018-12-29T05:19:27.102Z,15.30
2018-12-29T05:21:56.377Z,14.27
2018-12-29T05:24:26.669Z,13.67
2018-12-29T05:26:55.783Z,16.27
2018-12-29T05:29:24.565Z,14.20
2018-12-29T05:31:53.339Z,13.60
2018-12-29T05:34:22.233Z,14.10
2018-12-29T05:36:52.883Z,14.50
2018-12-29T05:39:21.683Z,15.00
2018-12-29T05:41:50.510Z,14.43
2018-12-29T05:44:19.537Z,14.20
2018-12-29T05:46:48.434Z,16.57
2018-12-29T05:49:19.817Z,15.57
2018-12-29T05:51:48.597Z,14.30
2018-12-29T05:54:19.781Z,14.50
2018-12-29T05:56:49.244Z,13.00
2018-12-29T05:59:18.190Z,14.67
2018-12-29T06:01:46.989Z,12.37
2018-12-29T06:04:16.598Z,14.03
2018-12-29T06:06:45.683Z,14.90
2018-12-29T06:09:14.522Z,14.27
2018-12-29T06:11:43.377Z,13.00
2018-12-29T06:14:12.206Z,14.40
2018-12-29T06:16:41.121Z,15.23
2018-12-29T06:19:09.852Z,13.97
2018-12-29T06:21:38.618Z,12.80
2018-12-29T06:24:07.441Z,13.43
2018-12-29T06:26:36.301Z,13.37
2018-12-29T06:29:05.059Z,14.63
2018-12-29T06:31:34.055Z,13.20
2018-12-29T06:34:02.871Z,14.53
2018-12-29T06:36:31.842Z,13.60
2018-12-29T06:39:00.772Z,15.63
2018-12-29T06:41:29.645Z,14.20
2018-12-29T06:43:58.417Z,14.30
2018-12-29T06:46:27.194Z,15.90
2018-12-29T06:48:55.988Z,14.50
2018-12-29T06:51:25.260Z,14.37
2018-12-29T06:53:54.123Z,14.77
2018-12-29T06:56:22.958Z,14.70
2018-12-29T06:58:51.778Z,14.27
2018-12-29T07:01:20.818Z,14.73
2018-12-29T07:03:49.559Z,14.87
2018-12-29T07:06:18.374Z,14.83
2018-12-29T07:08:47.174Z,17.23
2018-12-29T07:11:16.008Z,13.60
2018-12-29T07:13:45.248Z,16.73
2018-12-29T07:16:14.154Z,14.33
2018-12-29T07:18:42.954Z,14.70
2018-12-29T07:21:11.840Z,15.87
2018-12-29T07:23:40.702Z,15.27
2018-12-29T07:26:09.480Z,14.87
2018-12-29T07:28:38.682Z,15.47
2018-12-29T07:31:07.550Z,16.63
2018-12-29T07:33:36.706Z,15.73
2018-12-29T07:36:05.548Z,15.13
2018-12-29T07:38:34.513Z,14.27
2018-12-29T07:41:03.335Z,14.17
2018-12-29T07:43:32.238Z,16.43
2018-12-29T07:46:01.240Z,16.87
2018-12-29T07:48:30.134Z,16.40
2018-12-29T07:50:59.005Z,17.60
2018-12-29T07:53:27.898Z,16.73
2018-12-29T07:55:57.105Z,16.20
2018-12-29T07:58:26.052Z,14.20
2018-12-29T08:00:56.484Z,14.50
2018-12-29T08:03:25.380Z,15.80
2018-12-29T08:05:54.189Z,16.03
2018-12-29T08:08:22.962Z,17.53
2018-12-29T08:10:51.831Z,16.53
2018-12-29T08:13:20.926Z,14.57
2018-12-29T08:15:49.722Z,15.03
2018-12-29T08:18:18.961Z,17.07
2018-12-29T08:20:47.802Z,13.50
2018-12-29T08:23:16.605Z,15.90
2018-12-29T08:25:45.508Z,13.23
2018-12-29T08:28:17.684Z,14.43
2018-12-29T08:30:46.752Z,17.03
2018-12-29T08:33:15.764Z,14.30
2018-12-29T08:35:44.582Z,14.17
2018-12-29T08:38:13.330Z,13.20
2018-12-29T08:40:42.288Z,15.67
2018-12-29T08:43:22.754Z,15.00
2018-12-29T08:45:51.574Z,13.80
2018-12-29T08:48:20.354Z,14.10
2018-12-29T08:50:49.156Z,14.97
2018-12-29T08:53:17.914Z,15.80
2018-12-29T08:55:47.888Z,15.10
2018-12-29T08:58:18.272Z,15.10
2018-12-29T09:00:47.346Z,14.40
2018-12-29T09:03:16.148Z,13.53
2018-12-29T09:05:44.959Z,14.03
2018-12-29T09:08:13.921Z,14.70
2018-12-29T09:10:42.958Z,14.90
2018-12-29T09:13:11.862Z,14.47
2018-12-29T09:15:40.828Z,14.53
2018-12-29T09:18:10.348Z,15.87
2018-12-29T09:20:40.161Z,15.20
2018-12-29T09:23:08.999Z,14.70
2018-12-29T09:25:37.871Z,14.17
2018-12-29T09:28:06.708Z,15.60
2018-12-29T09:30:35.712Z,14.77
2018-12-29T09:33:04.496Z,13.80
2018-12-29T09:35:33.401Z,16.03
2018-12-29T09:38:04.223Z,14.53
2018-12-29T09:40:33.076Z,13.60
2018-12-29T09:43:01.907Z,14.50
2018-12-29T09:45:30.830Z,11.70
2018-12-29T09:47:59.878Z,13.20
2018-12-29T09:50:28.699Z,12.33
2018-12-29T09:52:57.503Z,12.97
2018-12-29T09:55:27.986Z,12.60
2018-12-29T09:57:56.879Z,11.27
2018-12-29T10:00:25.755Z,11.60
2018-12-29T10:02:54.607Z,11.60
2018-12-29T10:05:23.611Z,12.30
2018-12-29T10:07:56.023Z,11.23
2018-12-29T10:10:24.827Z,9.50
2018-12-29T10:12:53.941Z,11.60
2018-12-29T10:15:22.775Z,11.40
2018-12-29T10:17:51.815Z,12.37
2018-12-29T10:20:20.591Z,14.40
2018-12-29T10:22:49.833Z,11.73
2018-12-29T10:25:18.815Z,13.03
2018-12-29T10:27:47.803Z,12.43
2018-12-29T10:30:16.569Z,12.90
2018-12-29T10:32:45.422Z,13.10
2018-12-29T10:35:14.205Z,13.03
2018-12-29T10:37:57.563Z,10.83
2018-12-29T10:40:26.454Z,12.47
2018-12-29T10:42:55.211Z,11.13
2018-12-29T10:45:43.669Z,12.30
2018-12-29T10:48:12.629Z,11.60
2018-12-29T10:50:41.874Z,12.10
2018-12-29T10:53:10.693Z,12.17
2018-12-29T10:55:39.463Z,11.37
2018-12-29T10:58:08.330Z,11.70
2018-12-29T11:00:37.241Z,12.73
2018-12-29T11:03:06.042Z,12.00
2018-12-29T11:05:37.385Z,13.57
2018-12-29T11:08:06.285Z,11.90
2018-12-29T11:10:35.055Z,11.70
2018-12-29T11:13:04.081Z,12.40
2018-12-29T11:15:32.862Z,10.60
2018-12-29T11:18:02.035Z,13.10
2018-12-29T11:20:30.854Z,11.63
2018-12-29T11:22:59.654Z,12.40
2018-12-29T11:25:28.491Z,12.03
2018-12-29T11:27:57.581Z,11.20
2018-12-29T11:30:29.277Z,11.50
2018-12-29T11:32:58.064Z,10.13
2018-12-29T11:35:28.987Z,11.40
2018-12-29T11:37:57.760Z,11.67
2018-12-29T11:40:26.564Z,12.70
2018-12-29T11:42:55.370Z,12.60
2018-12-29T11:45:24.254Z,13.17
2018-12-29T11:47:53.074Z,12.83
2018-12-29T11:50:22.325Z,12.40
2018-12-29T11:52:51.185Z,12.03
2018-12-29T11:55:20.104Z,12.30
2018-12-29T11:57:49.002Z,12.33
2018-12-29T12:00:17.980Z,11.67
2018-12-29T12:02:46.939Z,13.30
2018-12-29T12:05:15.848Z,13.80
2018-12-29T12:07:44.696Z,13.47
2018-12-29T12:10:13.552Z,12.43
2018-12-29T12:12:42.397Z,13.97
2018-12-29T12:15:11.232Z,11.90
2018-12-29T12:17:41.146Z,13.30
2018-12-29T12:20:10.558Z,13.50
2018-12-29T12:22:39.468Z,11.17
2018-12-29T12:25:08.382Z,14.10
2018-12-29T12:27:37.485Z,13.40
2018-12-29T12:30:07.188Z,13.93
2018-12-29T12:32:36.112Z,13.63
2018-12-29T12:35:05.492Z,12.43
2018-12-29T12:37:34.450Z,13.80
2018-12-29T12:40:03.465Z,14.00
2018-12-29T12:42:32.521Z,14.10
2018-12-29T12:45:01.408Z,13.27
2018-12-29T12:47:30.623Z,13.50
2018-12-29T12:49:59.649Z,14.57
2018-12-29T12:52:28.993Z,14.60
2018-12-29T12:54:57.786Z,13.63
2018-12-29T12:57:26.966Z,13.00
2018-12-29T12:59:56.282Z,14.30
2018-12-29T13:02:25.538Z,13.77
2018-12-29T13:04:54.488Z,13.07
2018-12-29T13:07:23.445Z,14.37
2018-12-29T13:09:53.836Z,11.00
2018-12-29T13:12:22.679Z,13.37
2018-12-29T13:14:51.781Z,12.03
2018-12-29T13:17:20.710Z,11.70
2018-12-29T13:19:49.727Z,12.50
2018-12-29T13:22:18.775Z,15.50
2018-12-29T13:24:47.731Z,11.47
2018-12-29T13:27:16.592Z,10.90
2018-12-29T13:29:45.458Z,12.70
2018-12-29T13:32:14.430Z,11.10
2018-12-29T13:34:43.344Z,11.80
2018-12-29T13:37:12.236Z,11.70
2018-12-29T13:39:41.300Z,11.93
2018-12-29T13:42:10.226Z,10.93
2018-12-29T13:44:39.124Z,10.53
2018-12-29T13:47:07.973Z,11.13
2018-12-29T13:49:40.230Z,11.43
2018-12-29T13:52:09.106Z,11.83
2018-12-29T13:54:38.136Z,11.20
2018-12-29T13:57:07.006Z,11.20
2018-12-29T13:59:35.948Z,11.53
2018-12-29T14:02:05.230Z,12.07
2018-12-29T14:04:34.189Z,11.07
2018-12-29T14:07:03.137Z,11.30
2018-12-29T14:09:32.000Z,10.30
2018-12-29T14:12:01.043Z,10.03
2018-12-29T14:14:29.928Z,10.83
2018-12-29T14:16:59.060Z,10.63
2018-12-29T14:19:28.047Z,13.57
2018-12-29T14:21:56.971Z,10.70
2018-12-29T14:24:25.870Z,12.00
2018-12-29T14:26:54.848Z,11.30
2018-12-29T14:29:23.850Z,12.50
2018-12-29T14:31:52.772Z,11.60
2018-12-29T14:34:21.860Z,11.30
2018-12-29T14:36:50.734Z,10.93
2018-12-29T14:39:19.510Z,11.63
2018-12-29T14:41:48.440Z,11.80
2018-12-29T14:44:17.223Z,12.27
2018-12-29T14:46:46.090Z,11.03
2018-12-29T14:49:15.250Z,11.17
2018-12-29T14:51:44.312Z,11.57
2018-12-29T14:54:13.287Z,12.07
2018-12-29T14:56:42.163Z,12.30
2018-12-29T14:59:11.069Z,11.90
2018-12-29T15:01:40.173Z,12.40
2018-12-29T15:04:09.029Z,11.40
2018-12-29T15:06:37.985Z,12.03
2018-12-29T15:09:07.412Z,15.03
2018-12-29T15:11:36.336Z,14.20
2018-12-29T15:14:08.569Z,12.33
2018-12-29T15:16:37.968Z,13.73
2018-12-29T15:19:07.093Z,16.73
2018-12-29T15:21:36.618Z,14.73
2018-12-29T15:24:05.647Z,13.77
2018-12-29T15:26:34.691Z,13.33
2018-12-29T15:29:03.583Z,13.57
2018-12-29T15:31:32.424Z,12.50
2018-12-29T15:34:01.286Z,14.03
2018-12-29T15:36:32.839Z,13.87
2018-12-29T15:39:01.896Z,12.73
2018-12-29T15:41:30.945Z,13.43
2018-12-29T15:44:00.297Z,12.30
2018-12-29T15:46:29.127Z,13.33
2018-12-29T15:48:58.026Z,11.53
2018-12-29T15:51:27.200Z,13.10
2018-12-29T15:53:56.237Z,12.80
2018-12-29T15:56:25.265Z,12.20
2018-12-29T15:58:54.163Z,11.83
2018-12-29T16:01:23.245Z,13.00
2018-12-29T16:03:52.421Z,12.63
2018-12-29T16:06:21.331Z,13.20
2018-12-29T16:08:50.244Z,12.60
2018-12-29T16:11:25.987Z,13.87
2018-12-29T16:13:50.115Z,13.73
2018-12-29T16:16:19.069Z,11.27
2018-12-29T16:18:47.993Z,11.73
2018-12-29T16:21:17.130Z,11.27
2018-12-29T16:23:46.026Z,10.53
2018-12-29T16:26:14.978Z,11.03
2018-12-29T16:28:44.247Z,12.57
2018-12-29T16:31:13.235Z,12.07
2018-12-29T16:33:42.437Z,11.63
2018-12-29T16:36:11.767Z,10.93
2018-12-29T16:38:40.670Z,11.20
2018-12-29T16:41:09.656Z,11.10
2018-12-29T16:43:38.556Z,11.37
2018-12-29T16:46:07.548Z,10.73
2018-12-29T16:48:36.438Z,10.70
2018-12-29T16:51:05.308Z,10.63
2018-12-29T16:53:34.222Z,9.47
2018-12-29T16:56:03.084Z,9.20
2018-12-29T16:58:31.940Z,10.47
2018-12-29T17:01:00.836Z,9.33
2018-12-29T17:03:29.620Z,9.57
2018-12-29T17:05:58.493Z,9.10
2018-12-29T17:08:27.330Z,8.73
2018-12-29T17:10:56.223Z,7.67
2018-12-29T17:13:25.086Z,8.10
2018-12-29T17:15:54.035Z,8.57
2018-12-29T17:18:22.875Z,6.73
2018-12-29T17:20:51.863Z,6.80
2018-12-29T17:23:20.740Z,7.23
2018-12-29T17:25:52.147Z,7.73
2018-12-29T17:28:21.031Z,8.20
2018-12-29T17:30:49.989Z,8.77
2018-12-29T17:33:18.915Z,7.43
2018-12-29T17:35:47.895Z,8.47
2018-12-29T17:38:17.046Z,8.93
2018-12-29T17:40:46.029Z,8.23
2018-12-29T17:43:14.925Z,8.27
2018-12-29T17:45:44.308Z,9.13
2018-12-29T17:48:13.296Z,8.73
2018-12-29T17:50:42.240Z,7.37
2018-12-29T17:53:11.110Z,7.30
2018-12-29T17:55:40.119Z,7.90
2018-12-29T17:58:09.131Z,8.03
2018-12-29T18:00:38.023Z,8.23
2018-12-29T18:03:07.022Z,8.80
2018-12-29T18:05:36.009Z,7.57
2018-12-29T18:08:04.891Z,6.60
2018-12-29T18:10:33.957Z,7.20
2018-12-29T18:13:04.427Z,7.27
2018-12-29T18:15:33.369Z,8.40
2018-12-29T18:18:03.999Z,6.60
2018-12-29T18:20:33.026Z,7.33
2018-12-29T18:23:01.937Z,6.40
2018-12-29T18:25:30.840Z,6.63
2018-12-29T18:27:59.982Z,6.50
2018-12-29T18:30:29.065Z,6.70
2018-12-29T18:32:57.947Z,7.10
2018-12-29T18:35:26.854Z,7.57
2018-12-29T18:37:55.798Z,7.03
2018-12-29T18:40:24.772Z,6.80
2018-12-29T18:42:53.665Z,7.33
2018-12-29T18:45:22.524Z,7.70
2018-12-29T18:47:51.688Z,7.77
2018-12-29T18:50:20.555Z,8.00
2018-12-29T18:52:49.440Z,9.30
2018-12-29T18:55:18.320Z,9.43
2018-12-29T18:57:47.598Z,9.20
2018-12-29T19:00:16.599Z,9.70
2018-12-29T19:02:45.470Z,9.23
2018-12-29T19:05:14.387Z,8.63
2018-12-29T19:07:43.443Z,8.20
2018-12-29T19:10:12.567Z,8.37
2018-12-29T19:12:41.647Z,9.67
2018-12-29T19:15:10.602Z,11.23
2018-12-29T19:17:39.799Z,8.97
2018-12-29T19:20:09.085Z,9.00
2018-12-29T19:22:38.006Z,9.00
2018-12-29T19:25:06.883Z,8.40
2018-12-29T19:27:35.918Z,8.70
2018-12-29T19:30:05.393Z,9.90
2018-12-29T19:32:34.591Z,10.07
2018-12-29T19:35:03.777Z,10.70
2018-12-29T19:37:32.952Z,10.50
2018-12-29T19:40:01.947Z,9.30
2018-12-29T19:42:31.157Z,10.20
2018-12-29T19:45:00.011Z,10.73
2018-12-29T19:47:28.888Z,11.67
2018-12-29T19:49:58.155Z,10.30
2018-12-29T19:52:27.011Z,10.17
2018-12-29T19:54:55.892Z,11.40
2018-12-29T19:57:24.972Z,11.83
2018-12-29T19:59:53.893Z,10.13
2018-12-29T20:02:23.057Z,11.97
2018-12-29T20:04:52.296Z,11.37
2018-12-29T20:07:21.457Z,11.70
2018-12-29T20:09:50.431Z,11.73
2018-12-29T20:12:19.420Z,11.90
2018-12-29T20:14:48.685Z,12.40
2018-12-29T20:17:17.521Z,12.70
2018-12-29T20:19:46.452Z,13.07
2018-12-29T20:22:15.593Z,14.10
2018-12-29T20:24:44.477Z,15.87
2018-12-29T20:27:13.432Z,13.90
2018-12-29T20:29:42.451Z,15.03
2018-12-29T20:32:11.289Z,12.43
2018-12-29T20:34:40.143Z,13.67
2018-12-29T20:37:09.033Z,15.10
2018-12-29T20:39:37.929Z,11.90
2018-12-29T20:42:06.946Z,11.77
2018-12-29T20:44:35.940Z,12.00
2018-12-29T20:47:04.883Z,14.67
2018-12-29T20:49:34.019Z,14.23
2018-12-29T20:52:02.971Z,12.00
2018-12-29T20:54:31.880Z,12.43
2018-12-29T20:57:00.752Z,11.40
2018-12-29T20:59:29.946Z,10.40
2018-12-29T21:01:58.858Z,10.80
2018-12-29T21:04:30.007Z,11.63
2018-12-29T21:06:58.963Z,10.80
2018-12-29T21:09:27.873Z,11.00
2018-12-29T21:11:56.782Z,11.50
2018-12-29T21:14:25.693Z,9.43
2018-12-29T21:16:54.643Z,9.10
2018-12-29T21:19:23.558Z,10.33
2018-12-29T21:21:52.478Z,10.03
2018-12-29T21:24:21.354Z,9.90
2018-12-29T21:26:50.453Z,10.13
2018-12-29T21:29:19.302Z,10.23
2018-12-29T21:31:48.210Z,9.37
2018-12-29T21:34:17.188Z,8.87
2018-12-29T21:36:46.075Z,9.97
2018-12-29T21:39:15.186Z,8.40
2018-12-29T21:41:44.054Z,8.93
2018-12-29T21:44:12.991Z,9.47
2018-12-29T21:46:41.957Z,8.23
2018-12-29T21:49:10.903Z,8.83
2018-12-29T21:51:39.897Z,8.30
2018-12-29T21:54:08.799Z,7.80
2018-12-29T21:56:37.677Z,7.90
2018-12-29T21:59:06.569Z,8.20
2018-12-29T22:01:35.470Z,8.60
2018-12-29T22:04:04.385Z,6.77
2018-12-29T22:06:33.493Z,7.30
2018-12-29T22:09:02.371Z,7.60
2018-12-29T22:11:31.292Z,8.60
2018-12-29T22:14:00.114Z,9.30
2018-12-29T22:16:29.006Z,8.67
2018-12-29T22:18:57.864Z,8.07
2018-12-29T22:21:26.731Z,7.77
2018-12-29T22:23:55.681Z,7.10
2018-12-29T22:26:24.522Z,7.70
2018-12-29T22:28:53.462Z,8.27
2018-12-29T22:31:22.291Z,7.33
2018-12-29T22:33:51.300Z,7.30
2018-12-29T22:36:20.165Z,6.03
2018-12-29T22:38:50.559Z,6.70
2018-12-29T22:41:19.503Z,6.07
2018-12-29T22:43:48.376Z,6.40
2018-12-29T22:46:17.472Z,7.07
2018-12-29T22:48:46.329Z,6.00
2018-12-29T22:51:15.437Z,6.00
2018-12-29T22:53:44.314Z,6.73
2018-12-29T22:56:13.151Z,5.73
2018-12-29T22:58:42.075Z,5.53
2018-12-29T23:01:10.956Z,6.27
2018-12-29T23:03:40.013Z,6.47
2018-12-29T23:06:09.082Z,6.47
2018-12-29T23:08:37.984Z,7.00
2018-12-29T23:11:07.355Z,6.97
2018-12-29T23:13:36.220Z,5.87
2018-12-29T23:16:05.147Z,5.77
2018-12-29T23:18:34.010Z,6.10
2018-12-29T23:21:02.859Z,5.90
2018-12-29T23:23:31.845Z,5.13
2018-12-29T23:26:00.891Z,6.80
2018-12-29T23:28:29.798Z,5.97
2018-12-29T23:30:58.842Z,7.53
2018-12-29T23:33:27.741Z,5.43
2018-12-29T23:35:56.651Z,6.20
2018-12-29T23:38:25.533Z,6.07
2018-12-29T23:40:54.398Z,5.10
2018-12-29T23:43:23.433Z,5.67
2018-12-29T23:45:52.357Z,5.90
2018-12-29T23:48:21.201Z,5.47
2018-12-29T23:50:50.049Z,6.77
2018-12-29T23:53:18.970Z,5.83
2018-12-29T23:55:49.618Z,6.37
2018-12-29T23:58:18.487Z,6.00
